< < Back
Terminal Aerodrome Forecast


Current Version              Previous Versions:   1  2  3  4  5  6  7  8  9  

Terminal Aerodrome Forecast

228
FTUS42 KJAX 241747
TAFSSI
TAF
KSSI 241747Z 2418/2518 27017G25KT P6SM BKN025
     FM242100 28014G22KT P6SM FEW040
     FM242300 27009KT P6SM SKC
     FM250800 26005KT P6SM SKC
     FM251600 26007KT P6SM SKC=



Latest METAR

188
SAUS70 KWBC 251400 RRC
MTRSSI
METAR KSSI 251353Z AUTO 29004KT 10SM CLR 07/01 A3005 RMK AO2 SLP177
T00720011


USA.gov is the U.S. government's official web portal to all federal, state and local government web resources and services.